Time;durP1;ratioP1;P1;durP2;ratioP2;P2;SDS_P1;SDS_P2;PMS_P1;PMS_P2;Temp;Humidity;BMP_temperature;BMP_pressure;BME280_temperature;BME280_humidity;BME280_pressure;Samples;Min_cycle;Max_cycle;Signal;HPM_P1;HPM_P2
2021/06/13 00:01:58;;;;;;;3.72;3.42;;;20.50;61.50;;;;;;4996105;28;20065;-67
2021/06/13 00:04:23;;;;;;;3.58;3.28;;;20.50;61.80;;;;;;4991987;28;20346;-67
2021/06/13 00:06:52;;;;;;;3.78;3.03;;;20.50;61.70;;;;;;4996996;28;20030;-67
2021/06/13 00:09:19;;;;;;;4.18;3.13;;;20.40;61.90;;;;;;4994589;28;20735;-67
2021/06/13 00:11:44;;;;;;;3.30;3.10;;;20.40;62.00;;;;;;4996712;28;20125;-67
2021/06/13 00:14:11;;;;;;;3.83;3.30;;;20.40;62.20;;;;;;4994739;28;20171;-67
2021/06/13 00:16:36;;;;;;;3.53;3.22;;;20.40;62.40;;;;;;4996344;28;20111;-67
2021/06/13 00:19:04;;;;;;;3.67;3.38;;;20.40;62.30;;;;;;4994466;28;20512;-67
2021/06/13 00:21:30;;;;;;;4.95;3.47;;;20.40;62.40;;;;;;4994905;28;20058;-66
2021/06/13 00:23:55;;;;;;;3.92;3.53;;;20.40;62.50;;;;;;4995299;28;20088;-67
2021/06/13 00:26:21;;;;;;;6.82;4.03;;;20.40;62.60;;;;;;4992314;28;20030;-67
2021/06/13 00:28:47;;;;;;;4.43;4.10;;;20.30;62.90;;;;;;4996206;28;20114;-67
2021/06/13 00:31:12;;;;;;;4.10;3.70;;;20.30;62.80;;;;;;4994047;28;20062;-67
2021/06/13 00:33:38;;;;;;;3.97;3.67;;;20.30;62.80;;;;;;4993615;28;20036;-67
2021/06/13 00:36:04;;;;;;;4.45;4.15;;;20.30;62.90;;;;;;4994327;28;20037;-67
2021/06/13 00:38:30;;;;;;;4.57;4.18;;;20.20;62.90;;;;;;4995442;28;20046;-67
2021/06/13 00:40:56;;;;;;;7.85;4.50;;;20.20;63.00;;;;;;4994213;28;20046;-67
2021/06/13 00:43:21;;;;;;;5.15;4.65;;;20.20;64.00;;;;;;4993778;28;20036;-67
2021/06/13 00:45:47;;;;;;;5.53;4.40;;;20.20;63.30;;;;;;4994999;28;20502;-67
2021/06/13 00:48:13;;;;;;;5.55;4.20;;;20.20;63.40;;;;;;5000096;28;20045;-68
2021/06/13 00:50:47;;;;;;;4.55;4.15;;;20.20;63.40;;;;;;4992328;28;20597;-67
2021/06/13 00:53:13;;;;;;;5.07;4.68;;;20.20;63.80;;;;;;4992384;28;20129;-67
2021/06/13 00:55:39;;;;;;;5.25;4.75;;;20.10;63.30;;;;;;4995071;28;20783;-67
2021/06/13 00:58:06;;;;;;;6.80;4.88;;;20.10;63.50;;;;;;4995720;28;20701;-67
2021/06/13 01:00:33;;;;;;;4.57;4.18;;;20.10;63.80;;;;;;4996966;28;20049;-67
2021/06/13 01:02:59;;;;;;;5.65;4.82;;;20.10;63.50;;;;;;4991998;28;20057;-67
2021/06/13 01:05:26;;;;;;;5.05;4.57;;;20.10;63.40;;;;;;4994217;28;20030;-67
2021/06/13 01:08:27;;;;;;;5.68;4.82;;;20.00;64.10;;;;;;4992935;28;20037;-67
2021/06/13 01:11:18;;;;;;;5.30;4.80;;;20.00;63.70;;;;;;4991796;28;20085;-68
2021/06/13 01:14:17;;;;;;;4.88;4.47;;;20.00;64.00;;;;;;4992536;28;20072;-67
2021/06/13 01:16:52;;;;;;;5.30;4.80;;;20.00;64.30;;;;;;4998635;28;20046;-68
2021/06/13 01:20:02;;;;;;;5.20;4.70;;;19.90;63.60;;;;;;4996569;28;20046;-67
2021/06/13 01:22:50;;;;;;;5.40;4.90;;;19.90;64.00;;;;;;4973658;28;20555;-67
2021/06/13 01:25:34;;;;;;;6.30;5.07;;;19.90;64.00;;;;;;4991538;28;20505;-67
2021/06/13 01:28:18;;;;;;;5.70;5.20;;;19.90;63.90;;;;;;4996021;28;20081;-67
2021/06/13 01:30:46;;;;;;;6.05;5.07;;;19.80;63.80;;;;;;4994566;28;20026;-67
2021/06/13 01:33:14;;;;;;;8.32;5.70;;;19.80;63.30;;;;;;4995622;28;20593;-67
2021/06/13 01:35:41;;;;;;;8.07;5.75;;;19.80;63.40;;;;;;4995125;28;20061;-67
2021/06/13 01:38:11;;;;;;;6.15;5.53;;;19.80;63.30;;;;;;4995898;28;20035;-67
2021/06/13 01:40:37;;;;;;;5.82;5.30;;;19.70;63.50;;;;;;4996663;28;20085;-67
2021/06/13 01:43:05;;;;;;;5.57;5.07;;;19.70;63.40;;;;;;4994657;28;20042;-67
2021/06/13 01:45:37;;;;;;;7.25;5.22;;;19.70;63.50;;;;;;4996270;28;20045;-67
2021/06/13 01:48:06;;;;;;;5.95;5.45;;;19.70;63.50;;;;;;4998458;28;20042;-67
2021/06/13 01:50:32;;;;;;;5.88;5.38;;;19.60;63.30;;;;;;4997393;28;20034;-67
2021/06/13 01:53:05;;;;;;;5.70;5.20;;;19.60;63.10;;;;;;4997935;28;20045;-67
2021/06/13 01:55:32;;;;;;;6.80;5.57;;;19.60;63.60;;;;;;4996105;28;20610;-67
2021/06/13 01:58:00;;;;;;;6.47;5.78;;;19.60;63.30;;;;;;4996459;28;20107;-67
2021/06/13 02:00:26;;;;;;;6.85;6.15;;;19.60;63.30;;;;;;5002565;28;20049;-67
2021/06/13 02:02:54;;;;;;;6.68;5.93;;;19.60;64.00;;;;;;5000234;28;20124;-67
2021/06/13 02:05:23;;;;;;;6.78;6.07;;;19.50;63.10;;;;;;4998328;28;20661;-67
2021/06/13 02:07:51;;;;;;;6.53;5.88;;;19.50;63.80;;;;;;5011935;28;20034;-68
2021/06/13 02:10:19;;;;;;;7.45;6.00;;;19.40;63.00;;;;;;4998703;28;20416;-67
2021/06/13 02:12:47;;;;;;;7.13;5.85;;;19.40;63.10;;;;;;4992053;28;20069;-67
2021/06/13 02:15:15;;;;;;;7.05;6.35;;;19.40;63.10;;;;;;4995527;28;20034;-67
2021/06/13 02:17:43;;;;;;;6.68;5.85;;;19.30;62.90;;;;;;4996313;28;20042;-67
2021/06/13 02:20:11;;;;;;;7.68;6.63;;;19.30;62.90;;;;;;4997934;28;20062;-67
2021/06/13 02:22:39;;;;;;;9.65;6.30;;;19.30;62.90;;;;;;4997044;28;20044;-67
2021/06/13 02:25:07;;;;;;;7.97;6.97;;;19.30;63.00;;;;;;4995720;28;20022;-67
2021/06/13 02:27:34;;;;;;;8.82;7.18;;;19.20;63.30;;;;;;4996049;28;20122;-67
2021/06/13 02:30:01;;;;;;;7.18;6.38;;;19.20;63.30;;;;;;4993997;28;20034;-67
2021/06/13 02:32:28;;;;;;;7.63;6.82;;;19.10;63.10;;;;;;4995407;28;20038;-67
2021/06/13 02:34:55;;;;;;;7.82;6.97;;;19.10;63.40;;;;;;4996098;28;20122;-67
2021/06/13 02:37:23;;;;;;;8.40;6.93;;;19.00;63.40;;;;;;5000342;28;20031;-67
2021/06/13 02:39:49;;;;;;;8.30;7.20;;;19.00;63.60;;;;;;4999134;28;20508;-67
2021/06/13 02:42:14;;;;;;;8.25;7.45;;;19.00;63.80;;;;;;4997239;28;20498;-67
2021/06/13 02:44:40;;;;;;;8.55;6.97;;;19.00;63.80;;;;;;4993109;28;20493;-67
2021/06/13 02:47:07;;;;;;;7.82;7.03;;;18.90;63.80;;;;;;4996952;28;20027;-67
2021/06/13 02:49:32;;;;;;;7.82;6.90;;;18.90;64.00;;;;;;5004849;28;20065;-67
2021/06/13 02:52:10;;;;;;;7.65;6.85;;;18.90;64.10;;;;;;4997012;28;20066;-67
2021/06/13 02:54:41;;;;;;;9.07;7.07;;;18.90;64.70;;;;;;4995781;28;20030;-67
2021/06/13 02:57:10;;;;;;;7.80;6.95;;;18.80;64.50;;;;;;4999216;28;20050;-67
2021/06/13 02:59:47;;;;;;;8.65;7.55;;;18.80;64.50;;;;;;4998357;28;20089;-67
2021/06/13 03:02:14;;;;;;;8.07;6.82;;;18.80;64.50;;;;;;4997486;28;20057;-67
2021/06/13 03:04:44;;;;;;;7.25;6.55;;;18.80;64.50;;;;;;4998353;28;20521;-67
2021/06/13 03:07:14;;;;;;;7.65;6.85;;;18.80;64.50;;;;;;4994482;28;20038;-67
2021/06/13 03:09:42;;;;;;;7.50;6.65;;;18.80;64.50;;;;;;4998675;28;20026;-67
2021/06/13 03:12:09;;;;;;;8.57;6.82;;;18.80;64.60;;;;;;4994067;28;20038;-67
2021/06/13 03:14:36;;;;;;;8.52;7.05;;;18.80;64.90;;;;;;4994354;28;20038;-67
2021/06/13 03:17:03;;;;;;;7.63;6.85;;;18.80;65.70;;;;;;4997392;28;20042;-67
2021/06/13 03:19:29;;;;;;;7.90;6.95;;;18.80;65.00;;;;;;4994377;28;20077;-67
2021/06/13 03:21:56;;;;;;;9.23;7.32;;;18.80;65.30;;;;;;4995055;28;20038;-67
2021/06/13 03:24:24;;;;;;;7.38;6.68;;;18.80;65.30;;;;;;4993138;28;20026;-67
2021/06/13 03:26:53;;;;;;;7.80;6.80;;;18.70;65.30;;;;;;4996805;28;20030;-67
2021/06/13 03:29:19;;;;;;;7.85;7.05;;;18.70;65.50;;;;;;5002832;28;20614;-67
2021/06/13 03:31:45;;;;;;;8.35;7.55;;;18.60;65.60;;;;;;4994794;28;20073;-67
2021/06/13 03:34:12;;;;;;;8.57;7.30;;;18.60;65.80;;;;;;4996795;28;20089;-67
2021/06/13 03:36:39;;;;;;;8.35;7.40;;;18.50;66.00;;;;;;4994534;28;20038;-67
2021/06/13 03:39:06;;;;;;;8.32;7.38;;;18.50;66.10;;;;;;4991514;28;20537;-67
2021/06/13 03:41:32;;;;;;;9.10;7.38;;;18.40;66.20;;;;;;4994629;28;20038;-67
2021/06/13 03:43:59;;;;;;;7.70;6.72;;;18.40;66.40;;;;;;4998831;28;20058;-67
2021/06/13 03:46:24;;;;;;;7.70;6.80;;;18.30;66.40;;;;;;4994708;28;20037;-68
2021/06/13 03:48:52;;;;;;;7.78;6.95;;;18.30;66.50;;;;;;4995445;28;20080;-68
2021/06/13 03:51:20;;;;;;;8.38;7.20;;;18.20;66.60;;;;;;4994683;28;20037;-67
2021/06/13 03:53:54;;;;;;;9.60;7.30;;;18.20;66.70;;;;;;4996929;28;20030;-67
2021/06/13 03:56:40;;;;;;;9.85;7.28;;;18.20;66.90;;;;;;4996397;28;20070;-67
2021/06/13 03:59:07;;;;;;;8.15;7.35;;;18.20;67.80;;;;;;4997773;28;20479;-67
2021/06/13 04:01:35;;;;;;;7.90;7.10;;;18.20;66.90;;;;;;4994201;28;20841;-67
2021/06/13 04:04:02;;;;;;;8.95;7.82;;;18.20;66.70;;;;;;4993821;28;20133;-67
2021/06/13 04:06:28;;;;;;;8.43;7.30;;;18.20;66.80;;;;;;4994679;28;20434;-67
2021/06/13 04:08:55;;;;;;;9.23;6.60;;;18.30;67.30;;;;;;4998837;28;20031;-67
2021/06/13 04:11:22;;;;;;;8.07;7.00;;;18.30;67.10;;;;;;4992612;28;20030;-67
2021/06/13 04:13:49;;;;;;;8.77;6.85;;;18.20;67.10;;;;;;4997997;28;20061;-67
2021/06/13 04:16:16;;;;;;;8.07;6.63;;;18.20;67.20;;;;;;4991514;28;20045;-67
2021/06/13 04:18:42;;;;;;;9.55;6.57;;;18.20;67.40;;;;;;4991197;28;20609;-67
2021/06/13 04:21:15;;;;;;;7.60;6.82;;;18.20;67.60;;;;;;4990870;28;20042;-67
2021/06/13 04:23:43;;;;;;;7.18;6.43;;;18.10;68.10;;;;;;4996228;28;20050;-67
2021/06/13 04:26:17;;;;;;;7.18;6.47;;;18.10;67.80;;;;;;4994397;28;20042;-67
2021/06/13 04:28:43;;;;;;;7.32;6.55;;;18.00;68.30;;;;;;4993823;28;20120;-67
2021/06/13 04:31:12;;;;;;;7.38;6.45;;;18.00;67.80;;;;;;4996026;28;20030;-67
2021/06/13 04:33:40;;;;;;;7.50;6.60;;;18.00;68.30;;;;;;4994020;28;20037;-67
2021/06/13 04:36:06;;;;;;;7.80;6.68;;;18.00;68.50;;;;;;4993084;28;20033;-67
2021/06/13 04:38:32;;;;;;;7.80;6.70;;;18.00;69.30;;;;;;4995257;28;20117;-67
2021/06/13 04:40:59;;;;;;;9.65;7.90;;;17.90;68.50;;;;;;4995053;28;20438;-67
2021/06/13 04:43:25;;;;;;;8.30;7.05;;;17.90;68.80;;;;;;4994505;28;20528;-67
2021/06/13 04:45:50;;;;;;;10.68;7.80;;;17.90;69.20;;;;;;4993606;28;20061;-67
2021/06/13 04:48:17;;;;;;;9.15;7.25;;;17.90;69.30;;;;;;4994623;28;20065;-67
2021/06/13 04:50:44;;;;;;;7.82;7.03;;;18.00;69.70;;;;;;4994470;28;20157;-67
2021/06/13 04:53:53;;;;;;;9.10;7.55;;;18.00;69.70;;;;;;4995385;28;20027;-67
2021/06/13 04:56:21;;;;;;;10.85;7.35;;;18.00;70.20;;;;;;4992886;28;20034;-67
2021/06/13 04:58:47;;;;;;;8.30;7.40;;;18.10;69.40;;;;;;5000483;28;20022;-67
2021/06/13 05:01:13;;;;;;;8.85;7.95;;;18.10;69.50;;;;;;4995221;28;20037;-68
2021/06/13 05:03:41;;;;;;;8.68;7.78;;;18.20;69.40;;;;;;4995417;28;20054;-67
2021/06/13 05:06:07;;;;;;;10.55;8.38;;;18.20;69.20;;;;;;4991882;28;20445;-67
2021/06/13 05:08:33;;;;;;;10.18;8.07;;;18.20;68.50;;;;;;4993791;28;20516;-67
2021/06/13 05:10:58;;;;;;;9.48;7.57;;;18.30;68.80;;;;;;4992109;28;20044;-67
2021/06/13 05:13:24;;;;;;;9.20;7.90;;;18.30;68.60;;;;;;4994470;28;20030;-67
2021/06/13 05:15:50;;;;;;;8.88;7.97;;;18.30;69.00;;;;;;4996510;28;20777;-67
2021/06/13 05:18:15;;;;;;;12.45;8.25;;;18.30;68.90;;;;;;4998005;28;20117;-67
2021/06/13 05:20:42;;;;;;;9.00;7.95;;;18.40;68.70;;;;;;4997875;28;20023;-67
2021/06/13 05:23:08;;;;;;;8.85;7.80;;;18.40;69.00;;;;;;5000850;28;20421;-67
2021/06/13 05:25:36;;;;;;;10.98;8.07;;;18.50;69.00;;;;;;4998285;28;20267;-67
2021/06/13 05:28:03;;;;;;;9.63;8.18;;;18.50;68.50;;;;;;5002308;28;22281;-67
2021/06/13 05:30:31;;;;;;;10.88;8.63;;;18.60;69.30;;;;;;5000766;28;20560;-67
2021/06/13 05:32:57;;;;;;;10.05;7.47;;;18.70;68.50;;;;;;4996556;28;20034;-67
2021/06/13 05:35:23;;;;;;;11.13;8.57;;;18.70;68.20;;;;;;4995014;28;20041;-66
2021/06/13 05:37:49;;;;;;;12.65;7.75;;;18.80;67.60;;;;;;4995870;28;20040;-66
2021/06/13 05:40:16;;;;;;;10.13;7.53;;;18.90;67.00;;;;;;4994763;28;20162;-67
2021/06/13 05:42:42;;;;;;;10.75;8.48;;;18.90;66.80;;;;;;4995577;28;20133;-67
2021/06/13 05:45:11;;;;;;;9.35;7.40;;;18.90;66.60;;;;;;4995234;28;20109;-67
2021/06/13 05:47:37;;;;;;;9.35;7.25;;;19.00;66.30;;;;;;4998105;28;20038;-67
2021/06/13 05:50:06;;;;;;;9.18;7.03;;;19.00;67.10;;;;;;4996485;28;20038;-67
2021/06/13 05:52:31;;;;;;;9.13;7.35;;;19.10;66.40;;;;;;4997704;28;20030;-66
2021/06/13 05:54:57;;;;;;;11.57;7.47;;;19.10;66.00;;;;;;4998015;28;20064;-67
2021/06/13 05:57:25;;;;;;;9.63;7.18;;;19.20;66.40;;;;;;4982715;28;20034;-67
2021/06/13 05:59:50;;;;;;;9.65;7.10;;;19.30;65.20;;;;;;4988551;28;20121;-67
2021/06/13 06:02:16;;;;;;;10.57;7.78;;;19.30;65.30;;;;;;4978972;28;20040;-67
2021/06/13 06:04:42;;;;;;;9.80;7.03;;;19.30;64.80;;;;;;4986448;28;20066;-67
2021/06/13 06:07:07;;;;;;;8.90;6.43;;;19.30;64.30;;;;;;4990306;28;20032;-67
2021/06/13 06:09:33;;;;;;;11.65;6.45;;;19.30;64.50;;;;;;4987242;28;20030;-67
2021/06/13 06:11:59;;;;;;;7.30;6.60;;;19.40;64.20;;;;;;4983486;28;20095;-67
2021/06/13 06:14:25;;;;;;;10.50;6.35;;;19.40;64.60;;;;;;4988499;28;20239;-67
2021/06/13 06:16:50;;;;;;;8.25;6.53;;;19.40;64.00;;;;;;4987249;28;20046;-67
2021/06/13 06:19:16;;;;;;;9.27;6.63;;;19.40;63.40;;;;;;4986934;28;20595;-67
2021/06/13 06:21:42;;;;;;;6.57;5.93;;;19.50;63.40;;;;;;4992050;28;20038;-67
2021/06/13 06:24:07;;;;;;;7.30;5.88;;;19.50;63.40;;;;;;4988977;28;20053;-67
2021/06/13 06:26:33;;;;;;;7.38;5.75;;;19.50;63.80;;;;;;4986383;28;21638;-67
2021/06/13 06:28:59;;;;;;;6.90;6.07;;;19.60;63.80;;;;;;4993328;28;20038;-67
2021/06/13 06:31:24;;;;;;;11.20;6.13;;;19.60;63.60;;;;;;4988513;28;21960;-67
2021/06/13 06:33:51;;;;;;;7.22;5.80;;;19.70;63.20;;;;;;4987308;28;20045;-67
2021/06/13 06:36:16;;;;;;;8.43;5.65;;;19.70;62.90;;;;;;4988885;28;20041;-67
2021/06/13 06:38:42;;;;;;;6.53;5.85;;;19.80;62.90;;;;;;4986896;28;20038;-67
2021/06/13 06:41:08;;;;;;;6.20;5.32;;;19.90;62.10;;;;;;4990222;28;20044;-67
2021/06/13 06:43:33;;;;;;;6.88;5.10;;;19.90;62.40;;;;;;4995660;28;20038;-67
2021/06/13 06:45:59;;;;;;;6.93;4.90;;;19.90;61.70;;;;;;5002140;28;20501;-67
2021/06/13 06:48:25;;;;;;;5.22;4.72;;;20.00;61.80;;;;;;4995575;28;20300;-67
2021/06/13 06:50:51;;;;;;;7.28;4.32;;;20.00;61.30;;;;;;4995926;28;20743;-67
2021/06/13 06:53:16;;;;;;;9.20;5.20;;;20.10;61.30;;;;;;4997951;28;20038;-68
2021/06/13 06:55:42;;;;;;;5.22;4.75;;;20.20;60.80;;;;;;4999144;28;20034;-67
2021/06/13 06:58:08;;;;;;;7.85;4.50;;;20.20;59.70;;;;;;4996432;28;20535;-67
2021/06/13 07:00:33;;;;;;;5.75;4.15;;;20.30;59.40;;;;;;5000531;28;20117;-67
2021/06/13 07:02:59;;;;;;;5.22;4.50;;;20.30;59.50;;;;;;5000616;28;20445;-67
2021/06/13 07:05:24;;;;;;;7.97;4.53;;;20.30;59.30;;;;;;4998920;28;20030;-68
2021/06/13 07:07:50;;;;;;;5.85;4.47;;;20.40;59.10;;;;;;4998053;28;20030;-68
2021/06/13 07:10:16;;;;;;;6.80;4.50;;;20.40;59.00;;;;;;4998531;28;20033;-67
2021/06/13 07:12:43;;;;;;;8.88;4.50;;;20.40;58.90;;;;;;4998193;28;20042;-67
2021/06/13 07:15:09;;;;;;;7.07;4.28;;;20.50;58.80;;;;;;4996958;28;20120;-67
2021/06/13 07:17:36;;;;;;;6.07;4.47;;;20.50;58.10;;;;;;4999915;28;20117;-67
2021/06/13 07:20:04;;;;;;;6.35;3.97;;;20.60;57.80;;;;;;5004474;28;20480;-67
2021/06/13 07:22:29;;;;;;;4.60;4.10;;;20.60;58.20;;;;;;4995423;28;20060;-67
2021/06/13 07:24:57;;;;;;;6.03;4.32;;;20.60;58.30;;;;;;4997382;28;20034;-68
2021/06/13 07:27:23;;;;;;;9.23;4.05;;;20.60;57.90;;;;;;4999274;28;20030;-67
2021/06/13 07:29:49;;;;;;;6.03;4.00;;;20.60;58.00;;;;;;4998068;28;20033;-67
2021/06/13 07:32:16;;;;;;;5.97;4.18;;;20.70;58.40;;;;;;4998061;28;20042;-67
2021/06/13 07:34:42;;;;;;;5.00;4.20;;;20.80;58.40;;;;;;5000836;28;21210;-67
2021/06/13 07:37:09;;;;;;;7.70;4.65;;;20.80;58.20;;;;;;4993811;28;20038;-67
2021/06/13 07:39:35;;;;;;;4.88;3.85;;;20.90;57.80;;;;;;4996536;28;20565;-67
2021/06/13 07:42:02;;;;;;;6.53;4.40;;;21.00;57.90;;;;;;4992643;28;20042;-67
2021/06/13 07:44:28;;;;;;;7.28;4.50;;;21.10;57.00;;;;;;4996237;28;20052;-67
2021/06/13 07:46:56;;;;;;;6.57;4.70;;;21.10;57.10;;;;;;4997614;28;20470;-67
2021/06/13 07:49:22;;;;;;;6.03;4.57;;;21.20;56.30;;;;;;4995905;28;20517;-67
2021/06/13 07:51:47;;;;;;;4.97;4.45;;;21.20;56.30;;;;;;4993056;28;20042;-67
2021/06/13 07:54:14;;;;;;;7.97;5.32;;;21.30;56.40;;;;;;4993376;28;20034;-67
2021/06/13 07:56:40;;;;;;;5.65;4.35;;;21.30;56.00;;;;;;4994978;28;21368;-67
2021/06/13 07:59:05;;;;;;;6.53;4.25;;;21.30;56.50;;;;;;4997033;28;20030;-67
2021/06/13 08:01:31;;;;;;;5.38;4.60;;;21.40;56.50;;;;;;4997740;28;20129;-67
2021/06/13 08:03:58;;;;;;;5.15;4.45;;;21.40;56.20;;;;;;4996833;28;20049;-68
2021/06/13 08:06:23;;;;;;;7.40;4.88;;;21.50;56.90;;;;;;4995136;28;20034;-68
2021/06/13 08:08:50;;;;;;;7.97;4.90;;;21.60;56.10;;;;;;5000039;28;20030;-67
2021/06/13 08:11:15;;;;;;;6.25;4.55;;;21.60;55.80;;;;;;5007965;28;20079;-67
2021/06/13 08:13:41;;;;;;;5.85;4.70;;;21.60;56.20;;;;;;5000563;28;20117;-67
2021/06/13 08:16:07;;;;;;;5.78;4.57;;;21.70;55.90;;;;;;4995866;28;20064;-68
2021/06/13 08:18:32;;;;;;;5.97;4.40;;;21.80;56.70;;;;;;4995951;28;20034;-68
2021/06/13 08:20:59;;;;;;;5.93;4.53;;;21.90;56.00;;;;;;4996913;28;20531;-68
2021/06/13 08:23:25;;;;;;;7.18;4.97;;;22.00;56.00;;;;;;4997643;28;20053;-67
2021/06/13 08:25:50;;;;;;;7.55;4.68;;;22.10;55.00;;;;;;4994199;28;20041;-67
2021/06/13 08:28:17;;;;;;;5.18;4.35;;;22.10;54.90;;;;;;4994579;28;20042;-67
2021/06/13 08:30:42;;;;;;;6.28;4.40;;;22.20;54.90;;;;;;4996681;28;20129;-67
2021/06/13 08:33:08;;;;;;;7.53;4.75;;;22.30;55.00;;;;;;4998102;28;20453;-67
2021/06/13 08:35:35;;;;;;;5.45;4.43;;;22.40;54.50;;;;;;4996814;28;20636;-68
2021/06/13 08:38:02;;;;;;;5.10;4.60;;;22.40;54.00;;;;;;4994603;28;20042;-68
2021/06/13 08:40:28;;;;;;;5.65;4.43;;;22.50;54.00;;;;;;4997639;28;20173;-67
2021/06/13 08:42:55;;;;;;;5.00;4.03;;;22.50;54.20;;;;;;4995744;28;20042;-67
2021/06/13 08:45:21;;;;;;;4.53;4.00;;;22.70;54.40;;;;;;4995041;28;20030;-67
2021/06/13 08:47:52;;;;;;;5.63;4.18;;;22.80;54.60;;;;;;4994721;28;20525;-67
2021/06/13 08:50:18;;;;;;;5.82;4.72;;;22.90;54.20;;;;;;4996966;28;20033;-68
2021/06/13 08:52:47;;;;;;;5.50;4.22;;;23.10;53.80;;;;;;4996101;28;20077;-67
2021/06/13 08:55:13;;;;;;;5.55;4.53;;;23.20;53.40;;;;;;4999531;28;20046;-68
2021/06/13 08:57:39;;;;;;;5.70;4.18;;;23.40;53.00;;;;;;4997949;28;20053;-67
2021/06/13 09:00:13;;;;;;;5.35;3.78;;;23.40;51.90;;;;;;4998810;28;20508;-67
2021/06/13 09:02:40;;;;;;;4.83;3.77;;;23.40;51.10;;;;;;4999832;28;20062;-68
2021/06/13 09:05:08;;;;;;;4.80;3.60;;;23.40;52.00;;;;;;4999956;28;20315;-68
2021/06/13 09:07:34;;;;;;;4.55;3.60;;;23.40;51.90;;;;;;5001804;28;20030;-68
2021/06/13 09:10:08;;;;;;;6.30;3.40;;;23.40;52.00;;;;;;5000727;28;20113;-68
2021/06/13 09:12:36;;;;;;;5.05;3.70;;;23.50;52.00;;;;;;4998246;28;20043;-67
2021/06/13 09:15:03;;;;;;;4.55;3.75;;;23.60;51.80;;;;;;5000821;28;20065;-68
2021/06/13 09:17:30;;;;;;;4.22;3.75;;;23.60;51.90;;;;;;5001019;28;20042;-68
2021/06/13 09:20:01;;;;;;;4.03;3.20;;;23.60;51.50;;;;;;5000287;28;20034;-68
2021/06/13 09:22:27;;;;;;;4.20;3.50;;;23.60;51.00;;;;;;4999971;28;20120;-68
2021/06/13 09:25:08;;;;;;;4.78;3.47;;;23.60;50.70;;;;;;4998913;28;20121;-68
2021/06/13 09:27:33;;;;;;;4.70;3.60;;;23.60;49.70;;;;;;5013665;28;20039;-68
2021/06/13 09:29:59;;;;;;;2.95;2.65;;;23.60;50.30;;;;;;5001167;28;20529;-68
2021/06/13 09:32:25;;;;;;;3.92;2.95;;;23.60;49.00;;;;;;5000882;28;20041;-67
2021/06/13 09:35:20;;;;;;;3.47;2.80;;;23.60;48.50;;;;;;5006017;28;20038;-68
2021/06/13 09:38:07;;;;;;;3.92;3.08;;;23.60;46.90;;;;;;5000395;28;20113;-68
2021/06/13 09:40:33;;;;;;;3.10;2.80;;;23.60;47.20;;;;;;4998536;28;20044;-68
2021/06/13 09:43:10;;;;;;;4.07;2.83;;;23.60;48.30;;;;;;4998196;28;20042;-68
2021/06/13 09:45:36;;;;;;;3.10;2.80;;;23.60;47.80;;;;;;4994583;28;20556;-68
2021/06/13 09:48:02;;;;;;;3.40;2.58;;;23.70;48.70;;;;;;4997470;28;20041;-68
2021/06/13 09:51:04;;;;;;;4.07;3.35;;;23.70;49.00;;;;;;4995397;28;20093;-68
2021/06/13 09:53:45;;;;;;;3.88;2.58;;;23.70;47.40;;;;;;4975302;28;20057;-68
2021/06/13 09:56:14;;;;;;;2.78;2.40;;;23.80;48.20;;;;;;4998683;28;20085;-67
2021/06/13 09:58:56;;;;;;;3.58;2.40;;;23.80;48.30;;;;;;4998367;28;20104;-67
2021/06/13 10:01:35;;;;;;;3.30;2.13;;;24.00;47.80;;;;;;4996292;28;20048;-67
2021/06/13 10:04:01;;;;;;;2.22;2.03;;;24.10;47.60;;;;;;4998453;28;20066;-67
2021/06/13 10:06:36;;;;;;;2.95;2.67;;;24.20;48.10;;;;;;4997117;28;20497;-67
2021/06/13 10:09:07;;;;;;;2.88;2.03;;;24.40;46.00;;;;;;5006063;28;20030;-67
2021/06/13 10:11:36;;;;;;;2.40;2.20;;;24.40;46.60;;;;;;4997277;28;20038;-67
2021/06/13 10:14:06;;;;;;;3.45;2.25;;;24.50;46.40;;;;;;4998765;28;20042;-67
2021/06/13 10:16:43;;;;;;;3.17;2.20;;;24.50;46.40;;;;;;4997616;28;20045;-67
2021/06/13 10:19:09;;;;;;;3.63;2.42;;;24.60;46.60;;;;;;4998525;28;20064;-67
2021/06/13 10:21:37;;;;;;;2.72;1.98;;;24.60;47.00;;;;;;4997293;28;20770;-67
2021/06/13 10:24:06;;;;;;;2.95;2.22;;;24.70;46.30;;;;;;4984850;28;20454;-67
2021/06/13 10:26:34;;;;;;;2.25;1.95;;;24.70;45.50;;;;;;4994172;28;20026;-68
2021/06/13 10:29:00;;;;;;;2.90;1.95;;;24.80;45.50;;;;;;4986191;28;20041;-67
2021/06/13 10:31:25;;;;;;;4.22;2.30;;;24.90;44.80;;;;;;4993121;28;21336;-67
2021/06/13 10:33:52;;;;;;;2.40;1.95;;;25.00;45.50;;;;;;4996278;28;20061;-67
2021/06/13 10:36:17;;;;;;;3.38;2.20;;;25.10;45.20;;;;;;4996249;28;20038;-66
2021/06/13 10:38:43;;;;;;;2.40;2.20;;;25.20;44.80;;;;;;4993401;28;20398;-66
2021/06/13 10:41:09;;;;;;;2.47;1.73;;;25.10;44.70;;;;;;4991670;28;20027;-69
2021/06/13 10:43:35;;;;;;;3.65;1.60;;;25.20;43.50;;;;;;4993558;28;20100;-67
2021/06/13 10:46:16;;;;;;;2.25;1.83;;;25.20;43.10;;;;;;4995503;28;20450;-67
2021/06/13 10:48:50;;;;;;;3.28;2.25;;;25.10;41.90;;;;;;5010960;28;22349;-67
2021/06/13 10:51:35;;;;;;;4.03;2.42;;;25.10;42.50;;;;;;4996209;28;20035;-67
2021/06/13 10:54:35;;;;;;;3.08;2.15;;;25.10;43.00;;;;;;4999126;28;20060;-67
2021/06/13 10:57:03;;;;;;;2.00;1.80;;;25.10;43.40;;;;;;4998181;28;20057;-67
2021/06/13 10:59:34;;;;;;;2.05;1.75;;;25.00;42.50;;;;;;4999824;28;20041;-67
2021/06/13 11:02:05;;;;;;;2.00;1.60;;;25.10;42.10;;;;;;4998209;28;20437;-67
2021/06/13 11:04:44;;;;;;;4.05;1.80;;;25.10;42.80;;;;;;4999264;28;20113;-67
2021/06/13 11:07:30;;;;;;;2.05;1.85;;;25.10;42.40;;;;;;4999938;28;20057;-68
2021/06/13 11:12:56;;;;;;;2.08;1.98;;;25.30;43.50;;;;;;4991949;28;20034;-67
2021/06/13 11:15:31;;;;;;;1.75;1.42;;;25.40;43.30;;;;;;5005707;28;20174;-67
2021/06/13 11:18:18;;;;;;;2.03;1.70;;;25.50;42.30;;;;;;4997691;28;20046;-67
2021/06/13 11:21:01;;;;;;;1.58;1.48;;;25.50;41.10;;;;;;4996340;28;20061;-67
2021/06/13 11:23:27;;;;;;;1.65;1.27;;;25.60;40.10;;;;;;4997524;28;20040;-67
2021/06/13 11:25:56;;;;;;;2.63;1.48;;;25.60;41.00;;;;;;4999372;28;20586;-67
2021/06/13 11:28:44;;;;;;;2.17;1.50;;;25.60;40.00;;;;;;4992962;28;20034;-68
2021/06/13 11:31:10;;;;;;;1.33;1.23;;;25.50;40.50;;;;;;4996979;28;20038;-67
2021/06/13 11:33:47;;;;;;;2.20;1.67;;;25.50;41.00;;;;;;4994749;28;20516;-67
2021/06/13 11:36:25;;;;;;;1.88;1.60;;;25.50;40.70;;;;;;4997186;28;20034;-68
2021/06/13 11:39:12;;;;;;;2.60;1.40;;;25.50;40.10;;;;;;4998810;28;20042;-67
2021/06/13 11:41:39;;;;;;;1.92;1.20;;;25.50;38.90;;;;;;4998350;28;20379;-67
2021/06/13 11:44:08;;;;;;;2.60;1.30;;;25.60;39.30;;;;;;4993361;28;20508;-67
2021/06/13 11:46:40;;;;;;;1.55;1.30;;;25.50;38.10;;;;;;4995288;28;20144;-67
2021/06/13 11:49:10;;;;;;;2.83;1.30;;;25.50;38.50;;;;;;4997782;28;20084;-67
2021/06/13 11:51:59;;;;;;;3.45;1.30;;;25.50;38.40;;;;;;4999511;28;20390;-67
2021/06/13 11:54:45;;;;;;;3.03;1.38;;;25.50;39.00;;;;;;4995925;28;20688;-67
2021/06/13 11:57:13;;;;;;;1.40;1.30;;;25.50;39.90;;;;;;4998499;28;20121;-68
2021/06/13 11:59:41;;;;;;;3.33;1.40;;;25.60;40.20;;;;;;4997865;28;20038;-67
2021/06/13 12:02:09;;;;;;;2.00;1.70;;;25.60;40.30;;;;;;4995077;28;20986;-68
2021/06/13 12:04:34;;;;;;;1.95;1.40;;;25.70;40.20;;;;;;4998716;28;20050;-68
2021/06/13 12:07:13;;;;;;;1.80;1.40;;;25.70;40.50;;;;;;4999424;28;20057;-67
2021/06/13 12:09:39;;;;;;;2.33;1.42;;;25.70;40.30;;;;;;5004229;28;20060;-67
2021/06/13 12:12:07;;;;;;;1.92;1.40;;;25.70;39.70;;;;;;4993668;28;20073;-67
2021/06/13 12:14:56;;;;;;;1.73;1.58;;;25.80;38.80;;;;;;5001036;28;20429;-67
2021/06/13 12:17:24;;;;;;;1.95;1.25;;;25.80;36.80;;;;;;4994744;28;20040;-68
2021/06/13 12:19:59;;;;;;;1.63;1.40;;;25.80;39.40;;;;;;4994971;28;20309;-67
2021/06/13 12:22:41;;;;;;;1.70;1.20;;;25.80;39.00;;;;;;4996223;28;20043;-68
2021/06/13 12:27:43;;;;;;;3.38;1.35;;;25.90;37.80;;;;;;4999236;28;20068;-68
2021/06/13 12:30:18;;;;;;;5.10;1.27;;;25.90;38.60;;;;;;4996607;28;20166;-68
2021/06/13 12:32:52;;;;;;;1.40;1.30;;;25.80;38.80;;;;;;4995454;28;20091;-67
2021/06/13 12:35:18;;;;;;;2.55;1.63;;;25.90;40.30;;;;;;4997943;28;20438;-67
2021/06/13 12:37:58;;;;;;;4.63;1.42;;;25.90;39.40;;;;;;4997931;28;20676;-67
2021/06/13 12:40:24;;;;;;;1.20;1.10;;;25.90;38.00;;;;;;4996449;28;20037;-68
2021/06/13 12:42:50;;;;;;;1.08;1.02;;;25.90;39.60;;;;;;4996942;28;20037;-68
2021/06/13 12:45:17;;;;;;;1.40;1.30;;;25.90;39.10;;;;;;4996736;28;20041;-68
2021/06/13 12:47:45;;;;;;;1.83;1.20;;;25.90;38.70;;;;;;4993954;28;20030;-67
2021/06/13 12:50:35;;;;;;;2.17;1.25;;;26.00;38.70;;;;;;4996178;28;20397;-67
2021/06/13 12:53:05;;;;;;;1.15;1.05;;;26.00;38.50;;;;;;5009140;28;20042;-67
2021/06/13 12:55:39;;;;;;;1.95;1.20;;;26.10;38.80;;;;;;4997182;28;20125;-68
2021/06/13 12:58:11;;;;;;;2.25;1.23;;;26.10;37.90;;;;;;4995651;28;20100;-68
2021/06/13 13:00:37;;;;;;;1.80;1.30;;;26.20;38.00;;;;;;4997850;28;20133;-68
2021/06/13 13:03:05;;;;;;;1.70;1.30;;;26.30;37.50;;;;;;5000665;28;20124;-67